»·PEaware :: N21056 KAVX-KSAN

N21056 :: KAVX-KSAN

FLIGHT INFORMATION

Flight Status: Arrived
Operator: Privately registered:
United States
More flights under this callsign
Pilot: Erik K. (18332)
Aircraft: PILATUS PC-12 EAGLE
(PC12)
More flights by this aircraft type
Origin: KAVX Catalina
United States
Destination: KSAN San Diego Intl-Lindbergh
United States
More flights between these airports :: More routes between these airports
Route: +SXC V208 LAX118R CARDI MZB320R MZB
File this flight plan on PilotEdge
Remarks: I 8 RATING
Altitude:
(Current/Filed)
5,000ft
Speed:
(Current/Filed)
250kts
Departed: 20-Oct-18 01:18 PM
Arrived: 20-Oct-18 01:58 PM
Distance/Time
Traveled:
73nm/0:40
Distance/Time
To Go:
Arrived

Flight Plot

Page will automatically refresh every two minutes.


Map Options




Map Legend


Flown Route
Filed Route
Departure Airport
Arrival Airport
Navaid (VOR, NDB)
Fix

Horizontal Profiles

Position Reports

Time Latitude Longitude Heading Altitude Ground
Speed
20-Oct-18 12:59 33.403292 -118.415954 44 1546ft 0kts
20-Oct-18 13:00 33.403292 -118.415954 44 1546ft 0kts
20-Oct-18 13:01 33.403292 -118.415954 44 1546ft 0kts
20-Oct-18 13:02 33.403292 -118.415954 44 1546ft 0kts
20-Oct-18 13:03 33.403292 -118.415954 44 1546ft 0kts
20-Oct-18 13:04 33.403292 -118.415954 44 1546ft 0kts
20-Oct-18 13:05 33.403292 -118.415954 44 1546ft 0kts
20-Oct-18 13:06 33.403292 -118.415954 44 1546ft 0kts
20-Oct-18 13:07 33.403292 -118.415954 44 1546ft 0kts
20-Oct-18 13:08 33.403292 -118.415954 44 1546ft 0kts
20-Oct-18 13:09 33.403292 -118.415954 44 1546ft 0kts
20-Oct-18 13:10 33.403292 -118.415954 44 1546ft 0kts
20-Oct-18 13:11 33.403292 -118.415954 44 1546ft 0kts
20-Oct-18 13:12 33.403292 -118.415954 44 1546ft 0kts
20-Oct-18 13:13 33.403292 -118.415954 44 1546ft 0kts
20-Oct-18 13:14 33.403564 -118.416481 294 1548ft 6kts
20-Oct-18 13:15 33.402569 -118.419173 235 1553ft 11kts
20-Oct-18 13:16 33.402439 -118.419384 236 1552ft 0kts
20-Oct-18 13:17 33.402439 -118.419384 236 1552ft 0kts
20-Oct-18 13:18 33.402439 -118.419384 236 1552ft 0kts
20-Oct-18 13:19 33.402336 -118.419784 296 1552ft 13kts
20-Oct-18 13:20 33.405268 -118.415417 50 1541ft 95kts
20-Oct-18 13:21 33.418006 -118.382455 105 3541ft 128kts
20-Oct-18 13:22 33.382117 -118.337888 111 3335ft 235kts
20-Oct-18 13:23 33.373920 -118.268145 129 4002ft 243kts
20-Oct-18 13:24 33.345951 -118.195449 99 3984ft 251kts
20-Oct-18 13:25 33.333670 -118.112965 98 3977ft 254kts
20-Oct-18 13:26 33.322019 -118.029564 97 3969ft 255kts
20-Oct-18 13:27 33.310479 -117.946153 97 3954ft 256kts
20-Oct-18 13:28 33.298917 -117.862640 98 4012ft 255kts
20-Oct-18 13:29 33.289587 -117.791902 96 6377ft 198kts
20-Oct-18 13:30 33.287379 -117.728751 92 8320ft 188kts
20-Oct-18 13:31 33.289167 -117.661231 87 8930ft 231kts
20-Oct-18 13:32 33.271438 -117.587708 130 8929ft 252kts
20-Oct-18 13:33 33.222382 -117.528688 134 8921ft 251kts
20-Oct-18 13:34 33.174386 -117.469023 133 8919ft 250kts
20-Oct-18 13:35 33.123674 -117.413784 157 8924ft 250kts
20-Oct-18 13:36 33.061150 -117.379886 154 8915ft 243kts
20-Oct-18 13:37 33.002816 -117.347465 155 8897ft 235kts
20-Oct-18 13:38 32.946039 -117.316006 155 8895ft 214kts
20-Oct-18 13:39 32.895020 -117.287729 155 8896ft 203kts
20-Oct-18 13:40 32.845539 -117.260344 155 9005ft 193kts
20-Oct-18 13:41 32.798570 -117.234363 155 8997ft 198kts
20-Oct-18 13:42 32.756287 -117.206309 149 8992ft 159kts
20-Oct-18 13:43 32.747551 -117.159149 91 8508ft 168kts
20-Oct-18 13:44 32.748213 -117.104864 91 7929ft 173kts
20-Oct-18 13:45 32.748825 -117.049165 91 7371ft 174kts
20-Oct-18 13:46 32.749141 -116.992136 91 6815ft 175kts
20-Oct-18 13:47 32.748962 -116.933449 91 6033ft 186kts
20-Oct-18 13:48 32.748019 -116.870280 91 5033ft 193kts
20-Oct-18 13:49 32.731321 -116.825222 189 5011ft 150kts
20-Oct-18 13:50 32.709559 -116.857581 252 5008ft 126kts
20-Oct-18 13:51 32.699640 -116.894436 252 4990ft 109kts
20-Oct-18 13:52 32.688847 -116.934840 252 3953ft 136kts
20-Oct-18 13:53 32.682259 -116.977848 283 3816ft 138kts
20-Oct-18 13:54 32.691603 -117.017441 283 3813ft 118kts
20-Oct-18 13:55 32.701967 -117.060329 284 2734ft 151kts
20-Oct-18 13:56 32.712779 -117.104001 284 2032ft 109kts
20-Oct-18 13:57 32.719407 -117.134865 278 1544ft 109kts
20-Oct-18 13:58 32.728190 -117.168177 285 394ft 99kts
20-Oct-18 13:59 32.733922 -117.191132 289 17ft 45kts
20-Oct-18 14:00 32.733651 -117.195125 205 17ft 0kts
20-Oct-18 14:01 32.733651 -117.195125 205 17ft 0kts
20-Oct-18 14:02 32.733651 -117.195125 205 17ft 0kts
20-Oct-18 14:03 32.733651 -117.195125 205 17ft 0kts
20-Oct-18 14:04 32.733651 -117.195125 205 17ft 0kts
20-Oct-18 14:05 32.733651 -117.195125 205 17ft 0kts

Navigation Log

Ident Type
Flight plan parsing failed, navigation log unavailable